sensor_id;sensor_type;location;lat;lon;timestamp;P1;durP1;ratioP1;P2;durP2;ratioP2
52618;SDS011;38513;53.234;6.568;2023-11-21T00:01:59;28.25;;;8.18;;
52618;SDS011;38513;53.234;6.568;2023-11-21T00:04:25;26.93;;;7.93;;
52618;SDS011;38513;53.234;6.568;2023-11-21T00:06:54;27.35;;;8.10;;
52618;SDS011;38513;53.234;6.568;2023-11-21T00:09:20;27.77;;;7.35;;
52618;SDS011;38513;53.234;6.568;2023-11-21T00:11:49;30.38;;;7.70;;
52618;SDS011;38513;53.234;6.568;2023-11-21T00:14:16;26.17;;;7.80;;
52618;SDS011;38513;53.234;6.568;2023-11-21T00:16:42;28.65;;;7.80;;
52618;SDS011;38513;53.234;6.568;2023-11-21T00:19:09;28.15;;;8.13;;
52618;SDS011;38513;53.234;6.568;2023-11-21T00:21:35;31.60;;;8.05;;
52618;SDS011;38513;53.234;6.568;2023-11-21T00:24:07;25.73;;;8.00;;
52618;SDS011;38513;53.234;6.568;2023-11-21T00:26:34;28.05;;;7.63;;
52618;SDS011;38513;53.234;6.568;2023-11-21T00:29:02;29.25;;;8.93;;
52618;SDS011;38513;53.234;6.568;2023-11-21T00:31:33;34.60;;;8.07;;
52618;SDS011;38513;53.234;6.568;2023-11-21T00:34:02;27.58;;;8.55;;
52618;SDS011;38513;53.234;6.568;2023-11-21T00:36:31;26.05;;;8.30;;
52618;SDS011;38513;53.234;6.568;2023-11-21T00:38:58;28.35;;;8.60;;
52618;SDS011;38513;53.234;6.568;2023-11-21T00:41:24;28.13;;;8.48;;
52618;SDS011;38513;53.234;6.568;2023-11-21T00:43:54;34.03;;;9.55;;
52618;SDS011;38513;53.234;6.568;2023-11-21T00:46:20;33.92;;;9.15;;
52618;SDS011;38513;53.234;6.568;2023-11-21T00:48:46;31.05;;;9.77;;
52618;SDS011;38513;53.234;6.568;2023-11-21T00:51:15;33.27;;;9.20;;
52618;SDS011;38513;53.234;6.568;2023-11-21T00:53:41;35.22;;;9.77;;
52618;SDS011;38513;53.234;6.568;2023-11-21T00:56:07;33.10;;;10.00;;
52618;SDS011;38513;53.234;6.568;2023-11-21T00:58:33;33.60;;;10.40;;
52618;SDS011;38513;53.234;6.568;2023-11-21T01:01:00;31.38;;;10.43;;
52618;SDS011;38513;53.234;6.568;2023-11-21T01:03:27;33.78;;;9.95;;
52618;SDS011;38513;53.234;6.568;2023-11-21T01:05:53;37.17;;;10.18;;
52618;SDS011;38513;53.234;6.568;2023-11-21T01:08:20;31.55;;;11.00;;
52618;SDS011;38513;53.234;6.568;2023-11-21T01:10:46;34.83;;;10.75;;
52618;SDS011;38513;53.234;6.568;2023-11-21T01:13:13;30.75;;;10.75;;
52618;SDS011;38513;53.234;6.568;2023-11-21T01:15:40;34.50;;;11.10;;
52618;SDS011;38513;53.234;6.568;2023-11-21T01:18:06;36.58;;;11.15;;
52618;SDS011;38513;53.234;6.568;2023-11-21T01:20:33;38.38;;;12.18;;
52618;SDS011;38513;53.234;6.568;2023-11-21T01:23:00;35.28;;;10.68;;
52618;SDS011;38513;53.234;6.568;2023-11-21T01:25:26;36.33;;;11.35;;
52618;SDS011;38513;53.234;6.568;2023-11-21T01:27:52;33.67;;;11.57;;
52618;SDS011;38513;53.234;6.568;2023-11-21T01:30:18;34.60;;;12.05;;
52618;SDS011;38513;53.234;6.568;2023-11-21T01:32:44;37.65;;;12.20;;
52618;SDS011;38513;53.234;6.568;2023-11-21T01:35:11;37.85;;;12.57;;
52618;SDS011;38513;53.234;6.568;2023-11-21T01:37:37;35.00;;;12.13;;
52618;SDS011;38513;53.234;6.568;2023-11-21T01:40:04;42.20;;;13.60;;
52618;SDS011;38513;53.234;6.568;2023-11-21T01:42:34;43.72;;;13.52;;
52618;SDS011;38513;53.234;6.568;2023-11-21T01:45:01;35.08;;;12.85;;
52618;SDS011;38513;53.234;6.568;2023-11-21T01:47:30;38.42;;;13.02;;
52618;SDS011;38513;53.234;6.568;2023-11-21T01:49:56;43.40;;;14.05;;
52618;SDS011;38513;53.234;6.568;2023-11-21T01:52:22;42.40;;;13.98;;
52618;SDS011;38513;53.234;6.568;2023-11-21T01:54:49;40.13;;;14.70;;
52618;SDS011;38513;53.234;6.568;2023-11-21T01:57:16;47.58;;;14.60;;
52618;SDS011;38513;53.234;6.568;2023-11-21T01:59:42;43.88;;;13.95;;
52618;SDS011;38513;53.234;6.568;2023-11-21T02:02:08;38.80;;;13.87;;
52618;SDS011;38513;53.234;6.568;2023-11-21T02:04:35;39.15;;;14.52;;
52618;SDS011;38513;53.234;6.568;2023-11-21T02:07:02;42.75;;;14.50;;
52618;SDS011;38513;53.234;6.568;2023-11-21T02:09:31;40.53;;;14.95;;
52618;SDS011;38513;53.234;6.568;2023-11-21T02:11:59;45.92;;;14.80;;
52618;SDS011;38513;53.234;6.568;2023-11-21T02:14:25;46.33;;;15.60;;
52618;SDS011;38513;53.234;6.568;2023-11-21T02:16:53;44.95;;;15.77;;
52618;SDS011;38513;53.234;6.568;2023-11-21T02:19:20;43.57;;;15.90;;
52618;SDS011;38513;53.234;6.568;2023-11-21T02:21:55;47.92;;;15.57;;
52618;SDS011;38513;53.234;6.568;2023-11-21T02:24:24;46.05;;;16.17;;
52618;SDS011;38513;53.234;6.568;2023-11-21T02:26:52;47.22;;;16.15;;
52618;SDS011;38513;53.234;6.568;2023-11-21T02:29:19;41.75;;;15.98;;
52618;SDS011;38513;53.234;6.568;2023-11-21T02:31:51;46.53;;;16.25;;
52618;SDS011;38513;53.234;6.568;2023-11-21T02:34:27;47.28;;;16.25;;
52618;SDS011;38513;53.234;6.568;2023-11-21T02:36:53;46.10;;;16.65;;
52618;SDS011;38513;53.234;6.568;2023-11-21T02:39:20;48.07;;;15.97;;
52618;SDS011;38513;53.234;6.568;2023-11-21T02:41:50;56.58;;;17.25;;
52618;SDS011;38513;53.234;6.568;2023-11-21T02:44:16;49.00;;;17.43;;
52618;SDS011;38513;53.234;6.568;2023-11-21T02:46:42;49.92;;;16.67;;
52618;SDS011;38513;53.234;6.568;2023-11-21T02:49:09;51.22;;;17.38;;
52618;SDS011;38513;53.234;6.568;2023-11-21T02:51:37;44.05;;;16.23;;
52618;SDS011;38513;53.234;6.568;2023-11-21T02:54:04;41.83;;;16.17;;
52618;SDS011;38513;53.234;6.568;2023-11-21T02:56:33;49.05;;;16.45;;
52618;SDS011;38513;53.234;6.568;2023-11-21T02:58:59;49.05;;;17.08;;
52618;SDS011;38513;53.234;6.568;2023-11-21T03:01:26;56.47;;;17.40;;
52618;SDS011;38513;53.234;6.568;2023-11-21T03:03:52;48.57;;;17.73;;
52618;SDS011;38513;53.234;6.568;2023-11-21T03:06:20;50.47;;;17.40;;
52618;SDS011;38513;53.234;6.568;2023-11-21T03:08:46;58.65;;;16.77;;
52618;SDS011;38513;53.234;6.568;2023-11-21T03:11:13;61.72;;;17.88;;
52618;SDS011;38513;53.234;6.568;2023-11-21T03:13:42;47.65;;;16.83;;
52618;SDS011;38513;53.234;6.568;2023-11-21T03:16:09;56.28;;;18.02;;
52618;SDS011;38513;53.234;6.568;2023-11-21T03:18:36;61.55;;;18.20;;
52618;SDS011;38513;53.234;6.568;2023-11-21T03:21:03;62.75;;;18.35;;
52618;SDS011;38513;53.234;6.568;2023-11-21T03:23:37;54.30;;;17.70;;
52618;SDS011;38513;53.234;6.568;2023-11-21T03:26:11;57.23;;;18.10;;
52618;SDS011;38513;53.234;6.568;2023-11-21T03:28:47;62.40;;;19.38;;
52618;SDS011;38513;53.234;6.568;2023-11-21T03:31:13;65.82;;;18.45;;
52618;SDS011;38513;53.234;6.568;2023-11-21T03:33:41;64.23;;;19.20;;
52618;SDS011;38513;53.234;6.568;2023-11-21T03:36:07;54.15;;;16.95;;
52618;SDS011;38513;53.234;6.568;2023-11-21T03:38:34;58.15;;;18.73;;
52618;SDS011;38513;53.234;6.568;2023-11-21T03:41:00;56.95;;;17.65;;
52618;SDS011;38513;53.234;6.568;2023-11-21T03:43:27;50.17;;;17.75;;
52618;SDS011;38513;53.234;6.568;2023-11-21T03:45:53;58.83;;;18.33;;
52618;SDS011;38513;53.234;6.568;2023-11-21T03:48:19;50.33;;;18.05;;
52618;SDS011;38513;53.234;6.568;2023-11-21T03:50:45;63.15;;;17.77;;
52618;SDS011;38513;53.234;6.568;2023-11-21T03:53:12;55.00;;;18.15;;
52618;SDS011;38513;53.234;6.568;2023-11-21T03:55:38;49.73;;;17.00;;
52618;SDS011;38513;53.234;6.568;2023-11-21T03:58:04;54.05;;;18.25;;
52618;SDS011;38513;53.234;6.568;2023-11-21T04:00:31;54.08;;;18.40;;
52618;SDS011;38513;53.234;6.568;2023-11-21T04:02:57;57.78;;;18.58;;
52618;SDS011;38513;53.234;6.568;2023-11-21T04:05:24;61.05;;;19.17;;
52618;SDS011;38513;53.234;6.568;2023-11-21T04:07:50;67.68;;;20.25;;
52618;SDS011;38513;53.234;6.568;2023-11-21T04:10:17;71.65;;;21.13;;
52618;SDS011;38513;53.234;6.568;2023-11-21T04:12:43;82.05;;;21.33;;
52618;SDS011;38513;53.234;6.568;2023-11-21T04:15:10;72.80;;;21.42;;
52618;SDS011;38513;53.234;6.568;2023-11-21T04:17:40;76.88;;;22.20;;
52618;SDS011;38513;53.234;6.568;2023-11-21T04:20:07;81.78;;;22.77;;
52618;SDS011;38513;53.234;6.568;2023-11-21T04:22:41;75.10;;;22.33;;
52618;SDS011;38513;53.234;6.568;2023-11-21T04:25:09;65.22;;;20.77;;
52618;SDS011;38513;53.234;6.568;2023-11-21T04:27:36;67.15;;;19.83;;
52618;SDS011;38513;53.234;6.568;2023-11-21T04:30:03;77.72;;;21.58;;
52618;SDS011;38513;53.234;6.568;2023-11-21T04:32:30;76.57;;;21.65;;
52618;SDS011;38513;53.234;6.568;2023-11-21T04:34:56;68.43;;;21.15;;
52618;SDS011;38513;53.234;6.568;2023-11-21T04:37:23;58.28;;;19.83;;
52618;SDS011;38513;53.234;6.568;2023-11-21T04:39:50;59.88;;;19.40;;
52618;SDS011;38513;53.234;6.568;2023-11-21T04:42:17;69.80;;;20.75;;
52618;SDS011;38513;53.234;6.568;2023-11-21T04:44:44;61.08;;;19.38;;
52618;SDS011;38513;53.234;6.568;2023-11-21T04:47:10;60.92;;;19.20;;
52618;SDS011;38513;53.234;6.568;2023-11-21T04:49:37;65.07;;;19.70;;
52618;SDS011;38513;53.234;6.568;2023-11-21T04:52:03;65.30;;;19.40;;
52618;SDS011;38513;53.234;6.568;2023-11-21T04:54:30;64.13;;;19.30;;
52618;SDS011;38513;53.234;6.568;2023-11-21T04:56:56;58.50;;;19.45;;
52618;SDS011;38513;53.234;6.568;2023-11-21T04:59:23;63.20;;;19.87;;
52618;SDS011;38513;53.234;6.568;2023-11-21T05:01:50;67.20;;;20.42;;
52618;SDS011;38513;53.234;6.568;2023-11-21T05:04:17;64.93;;;19.90;;
52618;SDS011;38513;53.234;6.568;2023-11-21T05:06:43;65.47;;;20.95;;
52618;SDS011;38513;53.234;6.568;2023-11-21T05:09:09;57.55;;;19.30;;
52618;SDS011;38513;53.234;6.568;2023-11-21T05:11:37;50.65;;;18.58;;
52618;SDS011;38513;53.234;6.568;2023-11-21T05:14:06;53.38;;;18.45;;
52618;SDS011;38513;53.234;6.568;2023-11-21T05:16:32;46.35;;;17.98;;
52618;SDS011;38513;53.234;6.568;2023-11-21T05:18:59;46.53;;;17.25;;
52618;SDS011;38513;53.234;6.568;2023-11-21T05:21:29;45.80;;;16.95;;
52618;SDS011;38513;53.234;6.568;2023-11-21T05:23:58;46.60;;;18.23;;
52618;SDS011;38513;53.234;6.568;2023-11-21T05:26:25;43.77;;;17.77;;
52618;SDS011;38513;53.234;6.568;2023-11-21T05:28:51;48.70;;;17.58;;
52618;SDS011;38513;53.234;6.568;2023-11-21T05:31:17;45.35;;;17.45;;
52618;SDS011;38513;53.234;6.568;2023-11-21T05:33:43;42.42;;;17.30;;
52618;SDS011;38513;53.234;6.568;2023-11-21T05:36:09;45.13;;;18.30;;
52618;SDS011;38513;53.234;6.568;2023-11-21T05:38:36;42.10;;;19.00;;
52618;SDS011;38513;53.234;6.568;2023-11-21T05:41:02;46.30;;;19.60;;
52618;SDS011;38513;53.234;6.568;2023-11-21T05:43:31;49.85;;;19.27;;
52618;SDS011;38513;53.234;6.568;2023-11-21T05:46:00;50.72;;;19.65;;
52618;SDS011;38513;53.234;6.568;2023-11-21T05:48:26;52.95;;;21.58;;
52618;SDS011;38513;53.234;6.568;2023-11-21T05:50:52;54.20;;;21.57;;
52618;SDS011;38513;53.234;6.568;2023-11-21T05:53:19;55.10;;;22.42;;
52618;SDS011;38513;53.234;6.568;2023-11-21T05:55:45;59.58;;;23.13;;
52618;SDS011;38513;53.234;6.568;2023-11-21T05:58:11;55.75;;;22.05;;
52618;SDS011;38513;53.234;6.568;2023-11-21T06:00:38;57.55;;;22.08;;
52618;SDS011;38513;53.234;6.568;2023-11-21T06:03:04;58.67;;;22.05;;
52618;SDS011;38513;53.234;6.568;2023-11-21T06:05:32;59.25;;;22.77;;
52618;SDS011;38513;53.234;6.568;2023-11-21T06:07:58;71.50;;;25.33;;
52618;SDS011;38513;53.234;6.568;2023-11-21T06:10:26;72.05;;;26.33;;
52618;SDS011;38513;53.234;6.568;2023-11-21T06:12:53;73.35;;;25.50;;
52618;SDS011;38513;53.234;6.568;2023-11-21T06:15:19;74.25;;;26.13;;
52618;SDS011;38513;53.234;6.568;2023-11-21T06:17:47;75.10;;;25.70;;
52618;SDS011;38513;53.234;6.568;2023-11-21T06:20:19;77.75;;;25.13;;
52618;SDS011;38513;53.234;6.568;2023-11-21T06:22:47;74.82;;;25.17;;
52618;SDS011;38513;53.234;6.568;2023-11-21T06:25:14;69.43;;;25.10;;
52618;SDS011;38513;53.234;6.568;2023-11-21T06:27:41;66.80;;;22.73;;
52618;SDS011;38513;53.234;6.568;2023-11-21T06:30:08;60.85;;;22.80;;
52618;SDS011;38513;53.234;6.568;2023-11-21T06:32:38;59.03;;;21.88;;
52618;SDS011;38513;53.234;6.568;2023-11-21T06:35:10;46.05;;;18.40;;
52618;SDS011;38513;53.234;6.568;2023-11-21T06:37:39;52.13;;;19.45;;
52618;SDS011;38513;53.234;6.568;2023-11-21T06:40:18;49.50;;;19.13;;
52618;SDS011;38513;53.234;6.568;2023-11-21T06:42:45;47.88;;;19.42;;
52618;SDS011;38513;53.234;6.568;2023-11-21T06:45:12;44.25;;;17.38;;
52618;SDS011;38513;53.234;6.568;2023-11-21T06:47:38;54.97;;;21.63;;
52618;SDS011;38513;53.234;6.568;2023-11-21T06:50:05;52.35;;;21.52;;
52618;SDS011;38513;53.234;6.568;2023-11-21T06:55:24;54.95;;;22.67;;
52618;SDS011;38513;53.234;6.568;2023-11-21T06:57:51;50.53;;;23.45;;
52618;SDS011;38513;53.234;6.568;2023-11-21T07:00:18;53.70;;;23.55;;
52618;SDS011;38513;53.234;6.568;2023-11-21T07:02:44;54.05;;;23.88;;
52618;SDS011;38513;53.234;6.568;2023-11-21T07:05:10;54.97;;;24.80;;
52618;SDS011;38513;53.234;6.568;2023-11-21T07:10:32;65.38;;;27.92;;
52618;SDS011;38513;53.234;6.568;2023-11-21T07:13:00;67.80;;;28.63;;
52618;SDS011;38513;53.234;6.568;2023-11-21T07:15:26;67.68;;;29.20;;
52618;SDS011;38513;53.234;6.568;2023-11-21T07:17:56;71.93;;;30.70;;
52618;SDS011;38513;53.234;6.568;2023-11-21T07:20:22;72.13;;;29.95;;
52618;SDS011;38513;53.234;6.568;2023-11-21T07:22:48;69.60;;;29.48;;
52618;SDS011;38513;53.234;6.568;2023-11-21T07:25:15;66.72;;;28.92;;
52618;SDS011;38513;53.234;6.568;2023-11-21T07:27:41;61.17;;;27.07;;
52618;SDS011;38513;53.234;6.568;2023-11-21T07:30:07;61.72;;;26.92;;
52618;SDS011;38513;53.234;6.568;2023-11-21T07:32:35;59.75;;;26.30;;
52618;SDS011;38513;53.234;6.568;2023-11-21T07:35:01;55.40;;;25.40;;
52618;SDS011;38513;53.234;6.568;2023-11-21T07:37:27;57.03;;;26.40;;
52618;SDS011;38513;53.234;6.568;2023-11-21T07:39:54;56.03;;;25.48;;
52618;SDS011;38513;53.234;6.568;2023-11-21T07:42:23;54.38;;;24.83;;
52618;SDS011;38513;53.234;6.568;2023-11-21T07:44:51;51.92;;;25.02;;
52618;SDS011;38513;53.234;6.568;2023-11-21T07:47:17;71.53;;;35.13;;
52618;SDS011;38513;53.234;6.568;2023-11-21T07:49:44;52.85;;;25.45;;
52618;SDS011;38513;53.234;6.568;2023-11-21T07:52:11;51.72;;;25.48;;
52618;SDS011;38513;53.234;6.568;2023-11-21T07:54:38;51.67;;;24.10;;
52618;SDS011;38513;53.234;6.568;2023-11-21T07:57:04;54.08;;;26.02;;
52618;SDS011;38513;53.234;6.568;2023-11-21T07:59:30;52.57;;;25.50;;
52618;SDS011;38513;53.234;6.568;2023-11-21T08:01:59;53.53;;;26.42;;
52618;SDS011;38513;53.234;6.568;2023-11-21T08:04:25;53.67;;;24.88;;
52618;SDS011;38513;53.234;6.568;2023-11-21T08:06:52;55.10;;;25.90;;
52618;SDS011;38513;53.234;6.568;2023-11-21T08:09:18;58.60;;;26.88;;
52618;SDS011;38513;53.234;6.568;2023-11-21T08:11:47;57.22;;;28.02;;
52618;SDS011;38513;53.234;6.568;2023-11-21T08:14:13;54.83;;;26.17;;
52618;SDS011;38513;53.234;6.568;2023-11-21T08:16:40;54.30;;;27.58;;
52618;SDS011;38513;53.234;6.568;2023-11-21T08:19:06;53.33;;;26.00;;
52618;SDS011;38513;53.234;6.568;2023-11-21T08:21:37;53.85;;;27.55;;
52618;SDS011;38513;53.234;6.568;2023-11-21T08:24:06;55.70;;;27.07;;
52618;SDS011;38513;53.234;6.568;2023-11-21T08:26:35;55.03;;;27.30;;
52618;SDS011;38513;53.234;6.568;2023-11-21T08:29:02;52.55;;;28.40;;
52618;SDS011;38513;53.234;6.568;2023-11-21T08:31:28;52.43;;;27.57;;
52618;SDS011;38513;53.234;6.568;2023-11-21T08:33:55;49.92;;;26.73;;
52618;SDS011;38513;53.234;6.568;2023-11-21T08:36:25;41.15;;;24.02;;
52618;SDS011;38513;53.234;6.568;2023-11-21T08:38:51;43.00;;;24.80;;
52618;SDS011;38513;53.234;6.568;2023-11-21T08:41:17;41.15;;;25.10;;
52618;SDS011;38513;53.234;6.568;2023-11-21T08:43:47;42.38;;;24.92;;
52618;SDS011;38513;53.234;6.568;2023-11-21T08:46:14;40.47;;;24.55;;
52618;SDS011;38513;53.234;6.568;2023-11-21T08:48:40;40.28;;;24.38;;
52618;SDS011;38513;53.234;6.568;2023-11-21T08:51:09;43.58;;;24.80;;
52618;SDS011;38513;53.234;6.568;2023-11-21T08:53:36;37.33;;;23.70;;
52618;SDS011;38513;53.234;6.568;2023-11-21T08:56:03;37.80;;;24.15;;
52618;SDS011;38513;53.234;6.568;2023-11-21T08:58:30;34.88;;;21.90;;
52618;SDS011;38513;53.234;6.568;2023-11-21T09:00:57;36.20;;;22.95;;
52618;SDS011;38513;53.234;6.568;2023-11-21T09:03:23;35.70;;;21.95;;
52618;SDS011;38513;53.234;6.568;2023-11-21T09:05:50;31.02;;;20.23;;
52618;SDS011;38513;53.234;6.568;2023-11-21T09:08:16;28.67;;;19.25;;
52618;SDS011;38513;53.234;6.568;2023-11-21T09:10:43;30.83;;;19.67;;
52618;SDS011;38513;53.234;6.568;2023-11-21T09:13:12;29.88;;;19.80;;
52618;SDS011;38513;53.234;6.568;2023-11-21T09:15:38;30.00;;;19.98;;
52618;SDS011;38513;53.234;6.568;2023-11-21T09:18:05;27.73;;;18.93;;
52618;SDS011;38513;53.234;6.568;2023-11-21T09:20:31;29.55;;;20.08;;
52618;SDS011;38513;53.234;6.568;2023-11-21T09:22:57;27.13;;;19.67;;
52618;SDS011;38513;53.234;6.568;2023-11-21T09:25:24;28.88;;;19.95;;
52618;SDS011;38513;53.234;6.568;2023-11-21T09:27:53;28.33;;;18.88;;
52618;SDS011;38513;53.234;6.568;2023-11-21T09:30:23;26.35;;;17.90;;
52618;SDS011;38513;53.234;6.568;2023-11-21T09:32:58;25.25;;;17.63;;
52618;SDS011;38513;53.234;6.568;2023-11-21T09:35:34;24.20;;;17.00;;
52618;SDS011;38513;53.234;6.568;2023-11-21T09:38:01;25.98;;;16.77;;
52618;SDS011;38513;53.234;6.568;2023-11-21T09:40:30;24.08;;;16.30;;
52618;SDS011;38513;53.234;6.568;2023-11-21T09:42:57;22.88;;;15.77;;
52618;SDS011;38513;53.234;6.568;2023-11-21T09:45:27;24.30;;;15.93;;
52618;SDS011;38513;53.234;6.568;2023-11-21T09:47:59;21.98;;;14.75;;
52618;SDS011;38513;53.234;6.568;2023-11-21T09:50:28;22.00;;;14.88;;
52618;SDS011;38513;53.234;6.568;2023-11-21T09:53:08;21.67;;;14.32;;
52618;SDS011;38513;53.234;6.568;2023-11-21T09:55:41;20.02;;;13.80;;
52618;SDS011;38513;53.234;6.568;2023-11-21T09:58:09;22.30;;;13.80;;
52618;SDS011;38513;53.234;6.568;2023-11-21T10:03:06;18.20;;;12.40;;
52618;SDS011;38513;53.234;6.568;2023-11-21T10:05:33;19.85;;;12.52;;
52618;SDS011;38513;53.234;6.568;2023-11-21T10:08:09;17.52;;;12.38;;
52618;SDS011;38513;53.234;6.568;2023-11-21T10:10:36;18.00;;;12.27;;
52618;SDS011;38513;53.234;6.568;2023-11-21T10:13:03;18.00;;;11.77;;
52618;SDS011;38513;53.234;6.568;2023-11-21T10:15:33;16.88;;;11.68;;
52618;SDS011;38513;53.234;6.568;2023-11-21T10:18:00;18.73;;;11.68;;
52618;SDS011;38513;53.234;6.568;2023-11-21T10:20:28;18.58;;;12.13;;
52618;SDS011;38513;53.234;6.568;2023-11-21T10:22:54;17.60;;;11.73;;
52618;SDS011;38513;53.234;6.568;2023-11-21T10:25:24;17.65;;;11.48;;
52618;SDS011;38513;53.234;6.568;2023-11-21T10:27:55;17.83;;;11.68;;
52618;SDS011;38513;53.234;6.568;2023-11-21T10:30:23;16.75;;;11.02;;
52618;SDS011;38513;53.234;6.568;2023-11-21T10:32:58;15.30;;;10.80;;
52618;SDS011;38513;53.234;6.568;2023-11-21T10:35:25;17.27;;;11.02;;
52618;SDS011;38513;53.234;6.568;2023-11-21T10:38:04;15.73;;;10.48;;
52618;SDS011;38513;53.234;6.568;2023-11-21T10:40:30;15.43;;;10.25;;
52618;SDS011;38513;53.234;6.568;2023-11-21T10:43:05;16.48;;;10.15;;
52618;SDS011;38513;53.234;6.568;2023-11-21T10:45:34;14.40;;;9.85;;
52618;SDS011;38513;53.234;6.568;2023-11-21T10:48:00;15.38;;;10.10;;
52618;SDS011;38513;53.234;6.568;2023-11-21T10:50:26;14.85;;;10.27;;
52618;SDS011;38513;53.234;6.568;2023-11-21T10:52:52;13.88;;;9.60;;
52618;SDS011;38513;53.234;6.568;2023-11-21T10:55:19;15.30;;;9.83;;
52618;SDS011;38513;53.234;6.568;2023-11-21T10:57:48;15.30;;;10.55;;
52618;SDS011;38513;53.234;6.568;2023-11-21T11:00:15;15.02;;;10.00;;
52618;SDS011;38513;53.234;6.568;2023-11-21T11:02:44;17.27;;;9.93;;
52618;SDS011;38513;53.234;6.568;2023-11-21T11:05:15;16.95;;;10.60;;
52618;SDS011;38513;53.234;6.568;2023-11-21T11:07:41;15.98;;;9.93;;
52618;SDS011;38513;53.234;6.568;2023-11-21T11:10:11;14.15;;;9.75;;
52618;SDS011;38513;53.234;6.568;2023-11-21T11:12:40;13.98;;;9.68;;
52618;SDS011;38513;53.234;6.568;2023-11-21T11:15:07;13.77;;;9.43;;
52618;SDS011;38513;53.234;6.568;2023-11-21T11:17:37;13.05;;;8.95;;
52618;SDS011;38513;53.234;6.568;2023-11-21T11:20:08;13.63;;;9.07;;
52618;SDS011;38513;53.234;6.568;2023-11-21T11:28:11;13.65;;;9.40;;
52618;SDS011;38513;53.234;6.568;2023-11-21T11:38:45;13.17;;;9.00;;
52618;SDS011;38513;53.234;6.568;2023-11-21T11:41:15;13.13;;;8.70;;
52618;SDS011;38513;53.234;6.568;2023-11-21T11:43:55;13.43;;;8.50;;
52618;SDS011;38513;53.234;6.568;2023-11-21T11:49:23;12.35;;;8.43;;
52618;SDS011;38513;53.234;6.568;2023-11-21T11:54:37;11.82;;;8.40;;
52618;SDS011;38513;53.234;6.568;2023-11-21T11:57:03;12.25;;;8.57;;
52618;SDS011;38513;53.234;6.568;2023-11-21T11:59:32;11.63;;;7.82;;
52618;SDS011;38513;53.234;6.568;2023-11-21T12:02:21;13.03;;;7.57;;
52618;SDS011;38513;53.234;6.568;2023-11-21T12:04:47;11.57;;;7.18;;
52618;SDS011;38513;53.234;6.568;2023-11-21T12:07:14;11.73;;;7.07;;
52618;SDS011;38513;53.234;6.568;2023-11-21T12:09:41;10.93;;;7.45;;
52618;SDS011;38513;53.234;6.568;2023-11-21T12:12:08;12.32;;;7.55;;
52618;SDS011;38513;53.234;6.568;2023-11-21T12:14:34;12.52;;;8.25;;
52618;SDS011;38513;53.234;6.568;2023-11-21T12:17:02;13.27;;;8.13;;
52618;SDS011;38513;53.234;6.568;2023-11-21T12:19:35;12.57;;;8.60;;
52618;SDS011;38513;53.234;6.568;2023-11-21T12:22:03;12.48;;;8.30;;
52618;SDS011;38513;53.234;6.568;2023-11-21T12:24:29;13.55;;;8.38;;
52618;SDS011;38513;53.234;6.568;2023-11-21T12:26:55;12.05;;;8.30;;
52618;SDS011;38513;53.234;6.568;2023-11-21T12:29:22;12.95;;;8.27;;
52618;SDS011;38513;53.234;6.568;2023-11-21T12:31:48;14.13;;;8.77;;
52618;SDS011;38513;53.234;6.568;2023-11-21T12:34:15;13.65;;;8.35;;
52618;SDS011;38513;53.234;6.568;2023-11-21T12:36:41;13.40;;;8.00;;
52618;SDS011;38513;53.234;6.568;2023-11-21T12:39:07;12.30;;;8.00;;
52618;SDS011;38513;53.234;6.568;2023-11-21T12:41:37;12.38;;;7.95;;
52618;SDS011;38513;53.234;6.568;2023-11-21T12:44:03;13.05;;;8.25;;
52618;SDS011;38513;53.234;6.568;2023-11-21T12:46:29;13.70;;;8.50;;
52618;SDS011;38513;53.234;6.568;2023-11-21T12:48:58;11.77;;;8.30;;
52618;SDS011;38513;53.234;6.568;2023-11-21T12:51:28;13.83;;;8.23;;
52618;SDS011;38513;53.234;6.568;2023-11-21T12:53:54;14.73;;;8.57;;
52618;SDS011;38513;53.234;6.568;2023-11-21T12:56:21;15.02;;;9.15;;
52618;SDS011;38513;53.234;6.568;2023-11-21T12:58:53;14.82;;;8.90;;
52618;SDS011;38513;53.234;6.568;2023-11-21T13:01:24;13.53;;;8.73;;
52618;SDS011;38513;53.234;6.568;2023-11-21T13:03:56;13.20;;;8.60;;
52618;SDS011;38513;53.234;6.568;2023-11-21T13:06:26;13.27;;;8.48;;
52618;SDS011;38513;53.234;6.568;2023-11-21T13:08:52;13.57;;;8.55;;
52618;SDS011;38513;53.234;6.568;2023-11-21T13:11:20;14.98;;;8.10;;
52618;SDS011;38513;53.234;6.568;2023-11-21T13:13:46;12.88;;;7.93;;
52618;SDS011;38513;53.234;6.568;2023-11-21T13:16:12;12.57;;;8.52;;
52618;SDS011;38513;53.234;6.568;2023-11-21T13:18:43;13.60;;;8.05;;
52618;SDS011;38513;53.234;6.568;2023-11-21T13:21:09;13.27;;;8.35;;
52618;SDS011;38513;53.234;6.568;2023-11-21T13:23:39;13.70;;;7.93;;
52618;SDS011;38513;53.234;6.568;2023-11-21T13:26:06;11.75;;;7.55;;
52618;SDS011;38513;53.234;6.568;2023-11-21T13:28:34;12.60;;;7.65;;
52618;SDS011;38513;53.234;6.568;2023-11-21T13:31:00;12.75;;;7.35;;
52618;SDS011;38513;53.234;6.568;2023-11-21T13:33:28;12.33;;;6.97;;
52618;SDS011;38513;53.234;6.568;2023-11-21T13:35:58;12.98;;;7.45;;
52618;SDS011;38513;53.234;6.568;2023-11-21T13:38:26;11.93;;;7.10;;
52618;SDS011;38513;53.234;6.568;2023-11-21T13:40:57;12.23;;;7.27;;
52618;SDS011;38513;53.234;6.568;2023-11-21T13:43:24;12.73;;;7.03;;
52618;SDS011;38513;53.234;6.568;2023-11-21T13:45:56;13.30;;;7.18;;
52618;SDS011;38513;53.234;6.568;2023-11-21T13:48:45;11.05;;;6.75;;
52618;SDS011;38513;53.234;6.568;2023-11-21T13:51:21;13.70;;;6.88;;
52618;SDS011;38513;53.234;6.568;2023-11-21T13:53:58;11.10;;;6.83;;
52618;SDS011;38513;53.234;6.568;2023-11-21T13:56:25;13.82;;;6.70;;
52618;SDS011;38513;53.234;6.568;2023-11-21T13:58:54;12.30;;;6.40;;
52618;SDS011;38513;53.234;6.568;2023-11-21T14:01:23;12.60;;;6.57;;
52618;SDS011;38513;53.234;6.568;2023-11-21T14:04:00;10.95;;;6.20;;
52618;SDS011;38513;53.234;6.568;2023-11-21T14:06:48;10.77;;;6.43;;
52618;SDS011;38513;53.234;6.568;2023-11-21T14:09:16;12.20;;;5.90;;
52618;SDS011;38513;53.234;6.568;2023-11-21T14:11:58;12.95;;;6.05;;
52618;SDS011;38513;53.234;6.568;2023-11-21T14:14:26;10.40;;;5.65;;
52618;SDS011;38513;53.234;6.568;2023-11-21T14:16:55;11.90;;;5.90;;
52618;SDS011;38513;53.234;6.568;2023-11-21T14:19:24;11.63;;;6.50;;
52618;SDS011;38513;53.234;6.568;2023-11-21T14:21:57;11.57;;;6.40;;
52618;SDS011;38513;53.234;6.568;2023-11-21T14:24:26;9.85;;;6.05;;
52618;SDS011;38513;53.234;6.568;2023-11-21T14:26:54;14.93;;;8.35;;
52618;SDS011;38513;53.234;6.568;2023-11-21T14:29:23;11.60;;;6.53;;
52618;SDS011;38513;53.234;6.568;2023-11-21T14:31:49;13.48;;;8.07;;
52618;SDS011;38513;53.234;6.568;2023-11-21T14:34:18;11.30;;;6.47;;
52618;SDS011;38513;53.234;6.568;2023-11-21T14:36:44;14.02;;;8.05;;
52618;SDS011;38513;53.234;6.568;2023-11-21T14:39:11;13.85;;;7.90;;
52618;SDS011;38513;53.234;6.568;2023-11-21T14:41:48;16.10;;;7.88;;
52618;SDS011;38513;53.234;6.568;2023-11-21T14:44:14;13.20;;;8.30;;
52618;SDS011;38513;53.234;6.568;2023-11-21T14:46:41;10.30;;;5.72;;
52618;SDS011;38513;53.234;6.568;2023-11-21T14:49:16;10.60;;;5.50;;
52618;SDS011;38513;53.234;6.568;2023-11-21T14:51:53;11.45;;;5.50;;
52618;SDS011;38513;53.234;6.568;2023-11-21T14:54:30;10.13;;;5.65;;
52618;SDS011;38513;53.234;6.568;2023-11-21T14:57:07;10.23;;;5.30;;
52618;SDS011;38513;53.234;6.568;2023-11-21T14:59:36;10.45;;;5.18;;